DAL8058 KLAX-KJFK
Flight info
| Callsign | DAL8058 |
|---|---|
| Flight time | 4h 49m |
| Altitude | 33000 |
| Route | OSHNN1 BEALE J146 DVC KD51W OATHE KD54A MCI RBS BVT JOEBU DORET Q29 JHW Q476 WLKES PUCKY1 |
| Aircraft | A321/M-SDE3FGHIRWY/LB1 |
Departure
| Time | 2026-05-08 19:24 |
|---|---|
| Airport | Los Angeles International Airport (KLAX) |
Arrival
| Time | 2026-05-09 00:14 |
|---|---|
| Airport | John F. Kennedy International Airport (KJFK) |
| Time | Latitude | Longitude | Altitude | Speed | Heading |
|---|---|---|---|---|---|
| 2026-05-08 19:06 | 33.94686 | -118.40988 | 93 ft | 0 kts | 219° |
| 2026-05-08 19:17 | 33.94701 | -118.40974 | 96 ft | 4 kts | 212° |
| 2026-05-08 19:17 | 33.94725 | -118.40960 | 95 ft | 4 kts | 188° |
| 2026-05-08 19:18 | 33.94746 | -118.40964 | 97 ft | 4 kts | 124° |
| 2026-05-08 19:18 | 33.94749 | -118.40969 | 93 ft | 0 kts | 111° |
| 2026-05-08 19:20 | 33.94752 | -118.40900 | 93 ft | 12 kts | 80° |
| 2026-05-08 19:20 | 33.94759 | -118.40805 | 96 ft | 11 kts | 84° |
| 2026-05-08 19:21 | 33.94773 | -118.40688 | 94 ft | 15 kts | 81° |
| 2026-05-08 19:21 | 33.94785 | -118.40568 | 93 ft | 14 kts | 84° |
| 2026-05-08 19:21 | 33.94794 | -118.40460 | 93 ft | 13 kts | 84° |
| 2026-05-08 19:21 | 33.94808 | -118.40343 | 93 ft | 15 kts | 81° |
| 2026-05-08 19:22 | 33.94825 | -118.40228 | 93 ft | 13 kts | 79° |
| 2026-05-08 19:22 | 33.94839 | -118.40125 | 93 ft | 12 kts | 82° |
| 2026-05-08 19:22 | 33.94892 | -118.40077 | 95 ft | 10 kts | 26° |
| 2026-05-08 19:22 | 33.94921 | -118.40007 | 93 ft | 9 kts | 80° |
| 2026-05-08 19:23 | 33.94941 | -118.39942 | 93 ft | 7 kts | 46° |
| 2026-05-08 19:23 | 33.94959 | -118.39923 | 92 ft | 1 kts | 36° |
| 2026-05-08 19:23 | 33.94992 | -118.39912 | 95 ft | 10 kts | 359° |
| 2026-05-08 19:23 | 33.95038 | -118.39979 | 95 ft | 10 kts | 270° |
| 2026-05-08 19:24 | 33.95025 | -118.40109 | 96 ft | 35 kts | 263° |
| 2026-05-08 19:24 | 33.94961 | -118.40738 | 99 ft | 113 kts | 263° |
| 2026-05-08 19:24 | 33.94837 | -118.41934 | 121 ft | 170 kts | 263° |
| 2026-05-08 19:24 | 33.94689 | -118.43370 | 842 ft | 172 kts | 263° |
| 2026-05-08 19:25 | 33.94547 | -118.44792 | 1712 ft | 171 kts | 263° |
| 2026-05-08 19:25 | 33.94405 | -118.46256 | 2325 ft | 186 kts | 263° |
| 2026-05-08 19:25 | 33.94296 | -118.47914 | 2769 ft | 210 kts | 267° |
| 2026-05-08 19:25 | 33.94228 | -118.49749 | 3039 ft | 233 kts | 268° |
| 2026-05-08 19:26 | 33.94151 | -118.51790 | 3186 ft | 255 kts | 266° |
| 2026-05-08 19:26 | 33.94008 | -118.53970 | 3618 ft | 265 kts | 265° |
| 2026-05-08 19:26 | 33.93837 | -118.56194 | 4228 ft | 268 kts | 264° |
| 2026-05-08 19:26 | 33.93657 | -118.58439 | 4861 ft | 270 kts | 264° |
| 2026-05-08 19:27 | 33.93392 | -118.60685 | 5456 ft | 273 kts | 252° |
| 2026-05-08 19:27 | 33.92848 | -118.62053 | 5834 ft | 275 kts | 234° |
| 2026-05-08 19:27 | 33.90815 | -118.63900 | 6560 ft | 281 kts | 197° |
| 2026-05-08 19:27 | 33.88863 | -118.64123 | 7084 ft | 285 kts | 177° |
| 2026-05-08 19:28 | 33.86869 | -118.63970 | 7610 ft | 288 kts | 177° |
| 2026-05-08 19:28 | 33.84871 | -118.63682 | 8118 ft | 292 kts | 167° |
| 2026-05-08 19:28 | 33.82967 | -118.62809 | 8610 ft | 296 kts | 151° |
| 2026-05-08 19:28 | 33.81233 | -118.61447 | 9088 ft | 299 kts | 146° |
| 2026-05-08 19:29 | 33.79509 | -118.60035 | 9584 ft | 300 kts | 146° |
| 2026-05-08 19:29 | 33.77799 | -118.58642 | 10103 ft | 302 kts | 146° |
| 2026-05-08 19:29 | 33.76029 | -118.57206 | 10331 ft | 315 kts | 146° |
| 2026-05-08 19:29 | 33.74169 | -118.55697 | 10465 ft | 330 kts | 146° |
| 2026-05-08 19:30 | 33.72263 | -118.54051 | 10592 ft | 345 kts | 140° |
| 2026-05-08 19:30 | 33.70538 | -118.51968 | 10718 ft | 359 kts | 129° |
| 2026-05-08 19:30 | 33.69110 | -118.49442 | 10853 ft | 373 kts | 118° |
| 2026-05-08 19:30 | 33.68074 | -118.46540 | 11017 ft | 384 kts | 109° |
| 2026-05-08 19:31 | 33.67190 | -118.43487 | 11414 ft | 389 kts | 109° |
| 2026-05-08 19:31 | 33.66286 | -118.40417 | 11902 ft | 391 kts | 109° |
| 2026-05-08 19:31 | 33.65372 | -118.37339 | 12418 ft | 392 kts | 109° |
| 2026-05-08 19:31 | 33.64665 | -118.34182 | 12907 ft | 394 kts | 99° |
| 2026-05-08 19:32 | 33.64451 | -118.30903 | 13356 ft | 395 kts | 89° |
| 2026-05-08 19:32 | 33.64464 | -118.27631 | 13807 ft | 398 kts | 89° |
| 2026-05-08 19:32 | 33.64533 | -118.24309 | 14242 ft | 400 kts | 83° |
| 2026-05-08 19:32 | 33.65096 | -118.21034 | 14659 ft | 402 kts | 71° |
| 2026-05-08 19:33 | 33.66234 | -118.17965 | 15084 ft | 403 kts | 59° |
| 2026-05-08 19:33 | 33.67893 | -118.15248 | 15502 ft | 405 kts | 46° |
| 2026-05-08 19:33 | 33.70003 | -118.13005 | 15897 ft | 407 kts | 36° |
| 2026-05-08 19:33 | 33.72284 | -118.10977 | 16309 ft | 409 kts | 36° |
| 2026-05-08 19:34 | 33.74571 | -118.08936 | 16729 ft | 411 kts | 36° |
| 2026-05-08 19:34 | 33.76091 | -118.07573 | 16988 ft | 412 kts | 36° |
| 2026-05-08 19:34 | 33.78397 | -118.05501 | 17391 ft | 414 kts | 36° |
| 2026-05-08 19:34 | 33.80715 | -118.03418 | 17793 ft | 417 kts | 36° |
| 2026-05-08 19:35 | 33.83041 | -118.01324 | 18190 ft | 418 kts | 36° |
| 2026-05-08 19:35 | 33.85371 | -117.99221 | 18576 ft | 420 kts | 36° |
| 2026-05-08 19:35 | 33.87721 | -117.97096 | 18946 ft | 423 kts | 36° |
| 2026-05-08 19:35 | 33.90080 | -117.94969 | 19311 ft | 425 kts | 36° |
| 2026-05-08 19:36 | 33.92454 | -117.92826 | 19664 ft | 427 kts | 36° |
| 2026-05-08 19:36 | 33.94833 | -117.90663 | 19998 ft | 430 kts | 36° |
| 2026-05-08 19:36 | 33.97190 | -117.88512 | 20337 ft | 432 kts | 37° |
| 2026-05-08 19:36 | 33.99587 | -117.86314 | 20683 ft | 434 kts | 37° |
| 2026-05-08 19:37 | 34.01996 | -117.84100 | 21007 ft | 437 kts | 37° |
| 2026-05-08 19:37 | 34.04415 | -117.81875 | 21328 ft | 439 kts | 37° |
| 2026-05-08 19:37 | 34.06853 | -117.79636 | 21651 ft | 441 kts | 37° |
| 2026-05-08 19:37 | 34.09185 | -117.77222 | 21954 ft | 443 kts | 45° |
| 2026-05-08 19:38 | 34.11207 | -117.74410 | 22251 ft | 446 kts | 50° |
| 2026-05-08 19:38 | 34.13168 | -117.71495 | 22540 ft | 448 kts | 50° |
| 2026-05-08 19:38 | 34.15140 | -117.68565 | 22825 ft | 450 kts | 50° |
| 2026-05-08 19:38 | 34.17118 | -117.65623 | 23119 ft | 452 kts | 50° |
| 2026-05-08 19:39 | 34.19080 | -117.62707 | 23406 ft | 454 kts | 50° |
| 2026-05-08 19:39 | 34.21078 | -117.59739 | 23682 ft | 456 kts | 50° |
| 2026-05-08 19:39 | 34.23078 | -117.56760 | 23937 ft | 458 kts | 50° |
| 2026-05-08 19:39 | 34.25090 | -117.53763 | 24208 ft | 460 kts | 50° |
| 2026-05-08 19:40 | 34.27109 | -117.50757 | 24481 ft | 461 kts | 50° |
| 2026-05-08 19:40 | 34.29135 | -117.47741 | 24741 ft | 463 kts | 50° |
| 2026-05-08 19:40 | 34.31167 | -117.44713 | 24980 ft | 465 kts | 50° |
| 2026-05-08 19:40 | 34.33210 | -117.41667 | 25240 ft | 466 kts | 50° |
| 2026-05-08 19:41 | 34.35256 | -117.38612 | 25472 ft | 468 kts | 50° |
| 2026-05-08 19:41 | 34.37307 | -117.35543 | 25709 ft | 470 kts | 50° |
| 2026-05-08 19:41 | 34.39364 | -117.32453 | 25963 ft | 471 kts | 50° |
| 2026-05-08 19:41 | 34.41426 | -117.29355 | 26208 ft | 473 kts | 50° |
| 2026-05-08 19:42 | 34.43495 | -117.26250 | 26424 ft | 475 kts | 50° |
| 2026-05-08 19:42 | 34.45542 | -117.23175 | 26705 ft | 475 kts | 50° |
| 2026-05-08 19:42 | 34.47609 | -117.20065 | 27030 ft | 474 kts | 50° |
| 2026-05-08 19:42 | 34.49683 | -117.16941 | 27338 ft | 473 kts | 50° |
| 2026-05-08 19:43 | 34.51743 | -117.13833 | 27630 ft | 473 kts | 50° |
| 2026-05-08 19:43 | 34.53805 | -117.10720 | 27930 ft | 472 kts | 50° |
| 2026-05-08 19:43 | 34.55867 | -117.07630 | 28219 ft | 472 kts | 49° |
| 2026-05-08 19:43 | 34.57959 | -117.04564 | 28500 ft | 471 kts | 49° |
| 2026-05-08 19:44 | 34.60068 | -117.01517 | 28776 ft | 471 kts | 49° |
| 2026-05-08 19:44 | 34.62179 | -116.98482 | 29040 ft | 470 kts | 49° |
| 2026-05-08 19:44 | 34.64284 | -116.95450 | 29299 ft | 470 kts | 49° |
| 2026-05-08 19:44 | 34.66384 | -116.92406 | 29558 ft | 470 kts | 49° |
| 2026-05-08 19:45 | 34.68478 | -116.89357 | 29809 ft | 470 kts | 49° |
| 2026-05-08 19:45 | 34.70563 | -116.86304 | 30065 ft | 469 kts | 49° |
| 2026-05-08 19:45 | 34.72618 | -116.83287 | 30304 ft | 469 kts | 49° |
| 2026-05-08 19:45 | 34.74695 | -116.80235 | 30550 ft | 468 kts | 49° |
| 2026-05-08 19:46 | 34.76770 | -116.77185 | 30803 ft | 468 kts | 49° |
| 2026-05-08 19:46 | 34.78847 | -116.74134 | 31066 ft | 468 kts | 49° |
| 2026-05-08 19:46 | 34.82989 | -116.68040 | 31556 ft | 467 kts | 49° |
| 2026-05-08 19:47 | 34.85056 | -116.64997 | 31802 ft | 466 kts | 49° |
| 2026-05-08 19:47 | 34.87149 | -116.61987 | 32033 ft | 465 kts | 47° |
| 2026-05-08 19:47 | 34.89303 | -116.59051 | 32261 ft | 465 kts | 46° |
| 2026-05-08 19:47 | 34.91502 | -116.56159 | 32490 ft | 464 kts | 45° |
| 2026-05-08 19:48 | 34.93712 | -116.53295 | 32709 ft | 464 kts | 45° |
| 2026-05-08 19:48 | 34.95892 | -116.50461 | 32931 ft | 464 kts | 46° |
| 2026-05-08 19:48 | 35.00262 | -116.44688 | 33019 ft | 462 kts | 46° |
| 2026-05-08 19:49 | 35.04575 | -116.38880 | 33017 ft | 461 kts | 46° |
| 2026-05-08 19:49 | 35.08884 | -116.33064 | 33016 ft | 461 kts | 46° |
| 2026-05-08 19:50 | 35.13193 | -116.27255 | 33018 ft | 461 kts | 46° |
| 2026-05-08 19:50 | 35.17498 | -116.21445 | 33018 ft | 461 kts | 46° |
| 2026-05-08 19:51 | 35.21779 | -116.15661 | 33018 ft | 461 kts | 46° |
| 2026-05-08 19:51 | 35.26085 | -116.09837 | 33019 ft | 461 kts | 46° |
| 2026-05-08 19:52 | 35.30382 | -116.04009 | 33014 ft | 461 kts | 46° |
| 2026-05-08 19:52 | 35.34676 | -115.98178 | 33012 ft | 461 kts | 46° |
| 2026-05-08 19:53 | 35.38965 | -115.92339 | 33013 ft | 460 kts | 46° |
| 2026-05-08 19:53 | 35.43245 | -115.86505 | 33012 ft | 460 kts | 46° |
| 2026-05-08 19:54 | 35.47493 | -115.80706 | 33011 ft | 460 kts | 46° |
| 2026-05-08 19:54 | 35.51767 | -115.74862 | 33010 ft | 460 kts | 46° |
| 2026-05-08 19:55 | 35.56042 | -115.69020 | 33009 ft | 460 kts | 46° |
| 2026-05-08 19:55 | 35.60308 | -115.63165 | 33007 ft | 460 kts | 46° |
| 2026-05-08 19:56 | 35.64567 | -115.57307 | 33009 ft | 460 kts | 46° |
| 2026-05-08 19:56 | 35.68829 | -115.51444 | 33005 ft | 459 kts | 46° |
| 2026-05-08 19:57 | 35.73087 | -115.45573 | 33007 ft | 460 kts | 46° |
| 2026-05-08 19:57 | 35.77333 | -115.39694 | 33009 ft | 459 kts | 46° |
| 2026-05-08 19:58 | 35.81580 | -115.33819 | 33010 ft | 459 kts | 46° |
| 2026-05-08 19:58 | 35.85832 | -115.27936 | 33014 ft | 459 kts | 46° |
| 2026-05-08 19:59 | 35.90069 | -115.22044 | 33020 ft | 459 kts | 46° |
| 2026-05-08 19:59 | 35.94274 | -115.16190 | 33032 ft | 458 kts | 46° |
| 2026-05-08 20:00 | 35.98502 | -115.10295 | 33043 ft | 459 kts | 46° |
| 2026-05-08 20:00 | 36.02722 | -115.04394 | 33033 ft | 458 kts | 46° |
| 2026-05-08 20:01 | 36.06937 | -114.98491 | 33021 ft | 458 kts | 46° |
| 2026-05-08 20:01 | 36.11153 | -114.92588 | 32972 ft | 457 kts | 46° |
| 2026-05-08 20:02 | 36.15357 | -114.86684 | 32958 ft | 457 kts | 46° |
| 2026-05-08 20:02 | 36.18929 | -114.80185 | 32940 ft | 461 kts | 63° |
| 2026-05-08 20:03 | 36.21239 | -114.72838 | 32929 ft | 462 kts | 67° |
| 2026-05-08 20:03 | 36.23527 | -114.65358 | 32931 ft | 462 kts | 67° |
| 2026-05-08 20:04 | 36.25811 | -114.57901 | 32941 ft | 463 kts | 67° |
| 2026-05-08 20:04 | 36.28078 | -114.50449 | 32948 ft | 462 kts | 67° |
| 2026-05-08 20:05 | 36.30325 | -114.43032 | 32960 ft | 462 kts | 67° |
| 2026-05-08 20:05 | 36.32581 | -114.35577 | 32960 ft | 462 kts | 67° |
| 2026-05-08 20:06 | 36.34834 | -114.28117 | 32964 ft | 462 kts | 67° |
| 2026-05-08 20:06 | 36.37078 | -114.20647 | 32983 ft | 461 kts | 67° |
| 2026-05-08 20:07 | 36.39313 | -114.13169 | 32984 ft | 461 kts | 67° |
| 2026-05-08 20:07 | 36.41547 | -114.05706 | 32980 ft | 461 kts | 67° |
| 2026-05-08 20:08 | 36.43782 | -113.98241 | 32975 ft | 461 kts | 67° |
| 2026-05-08 20:08 | 36.45993 | -113.90825 | 32975 ft | 461 kts | 67° |
| 2026-05-08 20:09 | 36.48214 | -113.83351 | 32977 ft | 461 kts | 67° |
| 2026-05-08 20:09 | 36.50425 | -113.75865 | 32990 ft | 461 kts | 67° |
| 2026-05-08 20:10 | 36.52633 | -113.68378 | 32979 ft | 461 kts | 67° |
| 2026-05-08 20:10 | 36.54846 | -113.60893 | 32988 ft | 461 kts | 67° |
| 2026-05-08 20:11 | 36.57054 | -113.53404 | 32988 ft | 461 kts | 67° |
| 2026-05-08 20:11 | 36.59241 | -113.45907 | 33004 ft | 461 kts | 67° |
| 2026-05-08 20:12 | 36.61422 | -113.38405 | 33020 ft | 461 kts | 67° |
| 2026-05-08 20:12 | 36.63607 | -113.30890 | 33029 ft | 461 kts | 67° |
| 2026-05-08 20:13 | 36.65793 | -113.23371 | 33042 ft | 461 kts | 67° |
| 2026-05-08 20:13 | 36.67970 | -113.15857 | 33063 ft | 461 kts | 67° |
| 2026-05-08 20:14 | 36.70132 | -113.08365 | 33070 ft | 462 kts | 68° |
| 2026-05-08 20:14 | 36.72296 | -113.00820 | 33075 ft | 462 kts | 67° |
| 2026-05-08 20:15 | 36.74465 | -112.93275 | 33117 ft | 463 kts | 67° |
| 2026-05-08 20:15 | 36.76632 | -112.85719 | 33126 ft | 463 kts | 67° |
| 2026-05-08 20:16 | 36.78782 | -112.78187 | 33134 ft | 463 kts | 67° |
| 2026-05-08 20:16 | 36.80930 | -112.70618 | 33136 ft | 462 kts | 67° |
| 2026-05-08 20:17 | 36.83079 | -112.63051 | 33132 ft | 462 kts | 67° |
| 2026-05-08 20:17 | 36.85224 | -112.55479 | 33134 ft | 462 kts | 68° |
| 2026-05-08 20:18 | 36.87362 | -112.47902 | 33139 ft | 462 kts | 68° |
| 2026-05-08 20:18 | 36.89492 | -112.40330 | 33145 ft | 462 kts | 68° |
| 2026-05-08 20:19 | 36.91609 | -112.32736 | 33149 ft | 462 kts | 68° |
| 2026-05-08 20:19 | 36.93734 | -112.25143 | 33147 ft | 462 kts | 68° |
| 2026-05-08 20:20 | 36.95856 | -112.17595 | 33132 ft | 462 kts | 68° |
| 2026-05-08 20:20 | 36.97976 | -112.10008 | 33120 ft | 462 kts | 68° |
| 2026-05-08 20:21 | 37.00083 | -112.02411 | 33104 ft | 462 kts | 68° |
| 2026-05-08 20:21 | 37.02184 | -111.94809 | 33096 ft | 462 kts | 68° |
| 2026-05-08 20:22 | 37.04282 | -111.87195 | 33089 ft | 462 kts | 68° |
| 2026-05-08 20:22 | 37.06016 | -111.80864 | 33084 ft | 462 kts | 68° |
| 2026-05-08 20:23 | 37.08456 | -111.71965 | 33074 ft | 462 kts | 68° |
| 2026-05-08 20:23 | 37.10550 | -111.64365 | 33083 ft | 461 kts | 68° |
| 2026-05-08 20:24 | 37.12636 | -111.56745 | 33073 ft | 462 kts | 68° |
| 2026-05-08 20:24 | 37.14715 | -111.49129 | 33078 ft | 462 kts | 68° |
| 2026-05-08 20:25 | 37.16791 | -111.41494 | 33059 ft | 462 kts | 68° |
| 2026-05-08 20:25 | 37.18511 | -111.35140 | 33054 ft | 463 kts | 68° |
| 2026-05-08 20:26 | 37.20574 | -111.27479 | 33051 ft | 463 kts | 68° |
| 2026-05-08 20:26 | 37.22631 | -111.19824 | 33062 ft | 462 kts | 68° |
| 2026-05-08 20:27 | 37.24669 | -111.12229 | 33066 ft | 463 kts | 68° |
| 2026-05-08 20:27 | 37.26716 | -111.04578 | 33059 ft | 463 kts | 68° |
| 2026-05-08 20:28 | 37.28763 | -110.96911 | 33051 ft | 462 kts | 68° |
| 2026-05-08 20:28 | 37.30802 | -110.89248 | 33053 ft | 462 kts | 68° |
| 2026-05-08 20:29 | 37.32828 | -110.81571 | 33047 ft | 463 kts | 68° |
| 2026-05-08 20:29 | 37.34851 | -110.73887 | 33039 ft | 463 kts | 68° |
| 2026-05-08 20:30 | 37.36869 | -110.66208 | 33032 ft | 463 kts | 68° |
| 2026-05-08 20:30 | 37.38874 | -110.58573 | 33021 ft | 463 kts | 68° |
| 2026-05-08 20:31 | 37.40893 | -110.50874 | 33025 ft | 463 kts | 68° |
| 2026-05-08 20:31 | 37.42905 | -110.43176 | 33021 ft | 463 kts | 68° |
| 2026-05-08 20:32 | 37.44915 | -110.35460 | 33018 ft | 464 kts | 68° |
| 2026-05-08 20:32 | 37.46924 | -110.27753 | 33029 ft | 463 kts | 68° |
| 2026-05-08 20:33 | 37.48926 | -110.20028 | 33036 ft | 464 kts | 68° |
| 2026-05-08 20:33 | 37.50912 | -110.12308 | 33053 ft | 464 kts | 68° |
| 2026-05-08 20:34 | 37.52897 | -110.04574 | 33058 ft | 464 kts | 68° |
| 2026-05-08 20:35 | 37.55876 | -109.92958 | 33076 ft | 464 kts | 68° |
| 2026-05-08 20:35 | 37.57862 | -109.85177 | 33092 ft | 466 kts | 67° |
| 2026-05-08 20:36 | 37.59818 | -109.77402 | 33110 ft | 466 kts | 69° |
| 2026-05-08 20:36 | 37.61448 | -109.69533 | 33112 ft | 468 kts | 73° |
| 2026-05-08 20:37 | 37.62875 | -109.61527 | 33110 ft | 468 kts | 73° |
| 2026-05-08 20:37 | 37.64327 | -109.53526 | 33111 ft | 467 kts | 72° |
| 2026-05-08 20:38 | 37.65850 | -109.45548 | 33107 ft | 467 kts | 72° |
| 2026-05-08 20:38 | 37.67391 | -109.37591 | 33108 ft | 467 kts | 72° |
| 2026-05-08 20:39 | 37.68916 | -109.29622 | 33113 ft | 466 kts | 72° |
| 2026-05-08 20:39 | 37.70418 | -109.21656 | 33123 ft | 466 kts | 72° |
| 2026-05-08 20:40 | 37.71907 | -109.13733 | 33134 ft | 467 kts | 72° |
| 2026-05-08 20:40 | 37.73397 | -109.05753 | 33148 ft | 467 kts | 72° |
| 2026-05-08 20:41 | 37.74892 | -108.97770 | 33159 ft | 467 kts | 72° |
| 2026-05-08 20:41 | 37.76377 | -108.89781 | 33163 ft | 467 kts | 72° |
| 2026-05-08 20:42 | 37.77856 | -108.81788 | 33164 ft | 467 kts | 72° |
| 2026-05-08 20:42 | 37.79335 | -108.73796 | 33158 ft | 467 kts | 72° |
| 2026-05-08 20:43 | 37.80810 | -108.65789 | 33164 ft | 467 kts | 72° |
| 2026-05-08 20:43 | 37.82271 | -108.57773 | 33169 ft | 468 kts | 72° |
| 2026-05-08 20:44 | 37.83731 | -108.49746 | 33169 ft | 468 kts | 72° |
| 2026-05-08 20:44 | 37.85191 | -108.41714 | 33183 ft | 469 kts | 72° |
| 2026-05-08 20:45 | 37.86651 | -108.33664 | 33187 ft | 469 kts | 72° |
| 2026-05-08 20:45 | 37.88105 | -108.25610 | 33198 ft | 470 kts | 72° |
| 2026-05-08 20:46 | 37.89546 | -108.17537 | 33211 ft | 470 kts | 73° |
| 2026-05-08 20:46 | 37.90978 | -108.09513 | 33227 ft | 470 kts | 73° |
| 2026-05-08 20:47 | 37.92427 | -108.01392 | 33240 ft | 470 kts | 73° |
| 2026-05-08 20:47 | 37.93855 | -107.93351 | 33250 ft | 470 kts | 73° |
| 2026-05-08 20:48 | 37.95278 | -107.85253 | 33263 ft | 471 kts | 73° |
| 2026-05-08 20:48 | 37.96695 | -107.77149 | 33268 ft | 471 kts | 73° |
| 2026-05-08 20:49 | 37.98109 | -107.69054 | 33270 ft | 471 kts | 73° |
| 2026-05-08 20:49 | 37.99521 | -107.60947 | 33270 ft | 470 kts | 73° |
| 2026-05-08 20:50 | 38.00920 | -107.52843 | 33247 ft | 470 kts | 73° |
| 2026-05-08 20:50 | 38.02315 | -107.44742 | 33234 ft | 470 kts | 73° |
| 2026-05-08 20:51 | 38.03708 | -107.36638 | 33222 ft | 470 kts | 72° |
| 2026-05-08 20:51 | 38.05100 | -107.28527 | 33209 ft | 471 kts | 73° |
| 2026-05-08 20:52 | 38.06481 | -107.20411 | 33202 ft | 471 kts | 72° |
| 2026-05-08 20:52 | 38.07855 | -107.12289 | 33191 ft | 470 kts | 73° |
| 2026-05-08 20:53 | 38.09212 | -107.04220 | 33191 ft | 470 kts | 72° |
| 2026-05-08 20:53 | 38.10578 | -106.96109 | 33184 ft | 470 kts | 72° |
| 2026-05-08 20:54 | 38.11933 | -106.87991 | 33207 ft | 470 kts | 72° |
| 2026-05-08 20:54 | 38.13283 | -106.79873 | 33211 ft | 470 kts | 72° |
| 2026-05-08 20:55 | 38.14634 | -106.71751 | 33215 ft | 469 kts | 72° |
| 2026-05-08 20:55 | 38.15985 | -106.63621 | 33227 ft | 470 kts | 72° |
| 2026-05-08 20:56 | 38.17319 | -106.55498 | 33233 ft | 469 kts | 72° |
| 2026-05-08 20:56 | 38.18639 | -106.47381 | 33241 ft | 469 kts | 72° |
| 2026-05-08 20:57 | 38.19956 | -106.39253 | 33248 ft | 469 kts | 72° |
| 2026-05-08 20:57 | 38.21263 | -106.31193 | 33247 ft | 468 kts | 72° |
| 2026-05-08 20:58 | 38.22576 | -106.23070 | 33233 ft | 469 kts | 72° |
| 2026-05-08 20:58 | 38.23878 | -106.14943 | 33224 ft | 468 kts | 72° |
| 2026-05-08 20:59 | 38.25176 | -106.06817 | 33218 ft | 468 kts | 72° |
| 2026-05-08 20:59 | 38.26471 | -105.98693 | 33190 ft | 469 kts | 73° |
| 2026-05-08 21:00 | 38.27755 | -105.90588 | 33119 ft | 467 kts | 72° |
| 2026-05-08 21:00 | 38.29026 | -105.82487 | 33113 ft | 467 kts | 73° |
| 2026-05-08 21:01 | 38.30290 | -105.74376 | 33109 ft | 467 kts | 73° |
| 2026-05-08 21:01 | 38.31549 | -105.66257 | 33106 ft | 467 kts | 72° |
| 2026-05-08 21:02 | 38.32816 | -105.58138 | 33123 ft | 468 kts | 72° |
| 2026-05-08 21:02 | 38.34078 | -105.50007 | 33115 ft | 468 kts | 72° |
| 2026-05-08 21:03 | 38.35318 | -105.41922 | 33106 ft | 468 kts | 72° |
| 2026-05-08 21:03 | 38.36559 | -105.33780 | 33097 ft | 468 kts | 72° |
| 2026-05-08 21:04 | 38.37806 | -105.25619 | 33089 ft | 468 kts | 72° |
| 2026-05-08 21:04 | 38.39046 | -105.17456 | 33075 ft | 469 kts | 72° |
| 2026-05-08 21:05 | 38.40279 | -105.09292 | 33080 ft | 469 kts | 72° |
| 2026-05-08 21:05 | 38.41513 | -105.01109 | 33069 ft | 470 kts | 72° |
| 2026-05-08 21:06 | 38.42735 | -104.92925 | 33065 ft | 470 kts | 72° |
| 2026-05-08 21:06 | 38.43949 | -104.84736 | 33033 ft | 471 kts | 73° |
| 2026-05-08 21:07 | 38.45172 | -104.76506 | 33021 ft | 473 kts | 73° |
| 2026-05-08 21:07 | 38.46387 | -104.68233 | 33031 ft | 475 kts | 73° |
| 2026-05-08 21:08 | 38.47600 | -104.59940 | 33035 ft | 476 kts | 73° |
| 2026-05-08 21:08 | 38.48813 | -104.51624 | 33030 ft | 476 kts | 73° |
| 2026-05-08 21:09 | 38.50020 | -104.43316 | 33027 ft | 477 kts | 73° |
| 2026-05-08 21:09 | 38.51214 | -104.34994 | 33029 ft | 477 kts | 73° |
| 2026-05-08 21:10 | 38.52399 | -104.26713 | 33026 ft | 477 kts | 73° |
| 2026-05-08 21:10 | 38.53592 | -104.18372 | 33029 ft | 477 kts | 73° |
| 2026-05-08 21:11 | 38.54772 | -104.10026 | 33034 ft | 477 kts | 73° |
| 2026-05-08 21:11 | 38.55746 | -104.03085 | 33043 ft | 477 kts | 73° |
| 2026-05-08 21:12 | 38.56910 | -103.94743 | 33040 ft | 477 kts | 73° |
| 2026-05-08 21:12 | 38.58079 | -103.86401 | 33045 ft | 477 kts | 73° |
| 2026-05-08 21:13 | 38.59252 | -103.78053 | 33033 ft | 477 kts | 73° |
| 2026-05-08 21:13 | 38.60403 | -103.69743 | 33033 ft | 477 kts | 73° |
| 2026-05-08 21:14 | 38.61545 | -103.61388 | 33034 ft | 477 kts | 73° |
| 2026-05-08 21:14 | 38.62683 | -103.53037 | 33024 ft | 477 kts | 73° |
| 2026-05-08 21:15 | 38.63817 | -103.44683 | 33022 ft | 477 kts | 73° |
| 2026-05-08 21:15 | 38.64944 | -103.36323 | 33019 ft | 477 kts | 73° |
| 2026-05-08 21:16 | 38.66064 | -103.27969 | 33012 ft | 476 kts | 73° |
| 2026-05-08 21:16 | 38.67184 | -103.19606 | 33013 ft | 477 kts | 73° |
| 2026-05-08 21:17 | 38.68295 | -103.11231 | 33014 ft | 477 kts | 73° |
| 2026-05-08 21:17 | 38.69398 | -103.02888 | 33018 ft | 477 kts | 73° |
| 2026-05-08 21:18 | 38.70503 | -102.94513 | 33020 ft | 477 kts | 73° |
| 2026-05-08 21:18 | 38.71601 | -102.86128 | 33025 ft | 478 kts | 73° |
| 2026-05-08 21:19 | 38.72686 | -102.77734 | 33024 ft | 478 kts | 73° |
| 2026-05-08 21:19 | 38.73761 | -102.69317 | 33030 ft | 477 kts | 73° |
| 2026-05-08 21:20 | 38.74839 | -102.60926 | 33028 ft | 477 kts | 73° |
| 2026-05-08 21:20 | 38.75918 | -102.52548 | 33026 ft | 476 kts | 73° |
| 2026-05-08 21:21 | 38.76986 | -102.44167 | 33030 ft | 477 kts | 73° |
| 2026-05-08 21:21 | 38.78037 | -102.35767 | 33029 ft | 477 kts | 73° |
| 2026-05-08 21:22 | 38.79085 | -102.27365 | 33031 ft | 477 kts | 73° |
| 2026-05-08 21:22 | 38.80125 | -102.19021 | 33032 ft | 477 kts | 73° |
| 2026-05-08 21:23 | 38.81169 | -102.10637 | 33026 ft | 476 kts | 73° |
| 2026-05-08 21:23 | 38.82205 | -102.02231 | 33021 ft | 476 kts | 73° |
| 2026-05-08 21:24 | 38.83234 | -101.93853 | 33021 ft | 476 kts | 73° |
| 2026-05-08 21:24 | 38.84253 | -101.85474 | 33019 ft | 475 kts | 73° |
| 2026-05-08 21:25 | 38.85239 | -101.77088 | 33014 ft | 476 kts | 74° |
| 2026-05-08 21:25 | 38.86050 | -101.68627 | 33010 ft | 478 kts | 76° |
| 2026-05-08 21:26 | 38.86752 | -101.60142 | 33001 ft | 478 kts | 76° |
| 2026-05-08 21:26 | 38.87470 | -101.51668 | 32991 ft | 477 kts | 75° |
| 2026-05-08 21:27 | 38.88226 | -101.43209 | 32982 ft | 477 kts | 75° |
| 2026-05-08 21:27 | 38.88979 | -101.34798 | 32984 ft | 477 kts | 75° |
| 2026-05-08 21:28 | 38.89725 | -101.26333 | 32981 ft | 477 kts | 75° |
| 2026-05-08 21:28 | 38.90454 | -101.17850 | 32980 ft | 477 kts | 75° |
| 2026-05-08 21:29 | 38.91177 | -101.09377 | 32977 ft | 477 kts | 75° |
| 2026-05-08 21:29 | 38.91901 | -101.00910 | 32980 ft | 477 kts | 75° |
| 2026-05-08 21:30 | 38.92624 | -100.92424 | 32972 ft | 478 kts | 75° |
| 2026-05-08 21:30 | 38.93338 | -100.83941 | 32982 ft | 478 kts | 75° |
| 2026-05-08 21:31 | 38.94038 | -100.75451 | 32980 ft | 478 kts | 75° |
| 2026-05-08 21:31 | 38.94731 | -100.66955 | 32990 ft | 478 kts | 75° |
| 2026-05-08 21:32 | 38.95420 | -100.58506 | 32985 ft | 478 kts | 75° |
| 2026-05-08 21:32 | 38.96104 | -100.50019 | 32989 ft | 477 kts | 75° |
| 2026-05-08 21:33 | 38.96782 | -100.41536 | 32979 ft | 477 kts | 75° |
| 2026-05-08 21:33 | 38.97445 | -100.33054 | 32973 ft | 477 kts | 75° |
| 2026-05-08 21:34 | 38.98110 | -100.24574 | 32965 ft | 476 kts | 75° |
| 2026-05-08 21:34 | 38.98776 | -100.16104 | 32966 ft | 476 kts | 75° |
| 2026-05-08 21:35 | 38.99433 | -100.07640 | 32954 ft | 476 kts | 75° |
| 2026-05-08 21:35 | 39.00072 | -99.99174 | 32950 ft | 476 kts | 75° |
| 2026-05-08 21:36 | 39.00712 | -99.90736 | 32936 ft | 476 kts | 76° |
| 2026-05-08 21:36 | 39.01359 | -99.82264 | 32914 ft | 476 kts | 76° |
| 2026-05-08 21:37 | 39.01997 | -99.73780 | 32909 ft | 477 kts | 76° |
| 2026-05-08 21:37 | 39.02633 | -99.65271 | 32906 ft | 478 kts | 77° |
| 2026-05-08 21:38 | 39.03263 | -99.56760 | 32905 ft | 479 kts | 77° |
| 2026-05-08 21:38 | 39.03887 | -99.48226 | 32905 ft | 480 kts | 77° |
| 2026-05-08 21:39 | 39.04499 | -99.39668 | 32909 ft | 480 kts | 77° |
| 2026-05-08 21:39 | 39.05105 | -99.31100 | 32907 ft | 481 kts | 78° |
| 2026-05-08 21:40 | 39.05706 | -99.22562 | 32909 ft | 482 kts | 78° |
| 2026-05-08 21:40 | 39.06308 | -99.13969 | 32907 ft | 483 kts | 78° |
| 2026-05-08 21:41 | 39.07198 | -99.01045 | 32908 ft | 484 kts | 79° |
| 2026-05-08 21:41 | 39.07788 | -98.92406 | 32901 ft | 485 kts | 79° |
| 2026-05-08 21:42 | 39.08367 | -98.83757 | 32897 ft | 485 kts | 80° |
| 2026-05-08 21:42 | 39.08944 | -98.75102 | 32892 ft | 486 kts | 80° |
| 2026-05-08 21:43 | 39.09512 | -98.66423 | 32895 ft | 487 kts | 81° |
| 2026-05-08 21:43 | 39.10086 | -98.57743 | 32885 ft | 487 kts | 81° |
| 2026-05-08 21:44 | 39.10650 | -98.49048 | 32897 ft | 488 kts | 82° |
| 2026-05-08 21:44 | 39.11191 | -98.40337 | 32897 ft | 488 kts | 82° |
| 2026-05-08 21:45 | 39.11729 | -98.31680 | 32894 ft | 489 kts | 82° |
| 2026-05-08 21:45 | 39.12272 | -98.22945 | 32892 ft | 489 kts | 82° |
| 2026-05-08 21:46 | 39.12810 | -98.14218 | 32903 ft | 489 kts | 82° |
| 2026-05-08 21:46 | 39.13335 | -98.05470 | 32885 ft | 490 kts | 82° |
| 2026-05-08 21:47 | 39.13859 | -97.96718 | 32903 ft | 490 kts | 83° |
| 2026-05-08 21:47 | 39.14382 | -97.87957 | 32876 ft | 491 kts | 84° |
| 2026-05-08 21:48 | 39.14897 | -97.79158 | 32875 ft | 493 kts | 84° |
| 2026-05-08 21:48 | 39.15400 | -97.70345 | 32877 ft | 494 kts | 85° |
| 2026-05-08 21:49 | 39.15902 | -97.61517 | 32879 ft | 495 kts | 85° |
| 2026-05-08 21:49 | 39.16399 | -97.52724 | 32881 ft | 495 kts | 85° |
| 2026-05-08 21:50 | 39.16883 | -97.43823 | 32876 ft | 495 kts | 85° |
| 2026-05-08 21:50 | 39.17358 | -97.35024 | 32875 ft | 495 kts | 85° |
| 2026-05-08 21:51 | 39.17835 | -97.26155 | 32869 ft | 496 kts | 85° |
| 2026-05-08 21:51 | 39.18299 | -97.17285 | 32867 ft | 496 kts | 86° |
| 2026-05-08 21:52 | 39.18755 | -97.08401 | 32865 ft | 497 kts | 86° |
| 2026-05-08 21:52 | 39.19217 | -96.99508 | 32861 ft | 498 kts | 86° |
| 2026-05-08 21:53 | 39.19678 | -96.90595 | 32862 ft | 498 kts | 86° |
| 2026-05-08 21:53 | 39.20121 | -96.81683 | 32859 ft | 499 kts | 86° |
| 2026-05-08 21:54 | 39.20558 | -96.72741 | 32860 ft | 500 kts | 87° |
| 2026-05-08 21:54 | 39.20985 | -96.63848 | 32861 ft | 500 kts | 87° |
| 2026-05-08 21:55 | 39.21413 | -96.54886 | 32862 ft | 501 kts | 87° |
| 2026-05-08 21:56 | 39.22045 | -96.41437 | 32862 ft | 501 kts | 87° |
| 2026-05-08 21:56 | 39.22450 | -96.32478 | 32862 ft | 501 kts | 88° |
| 2026-05-08 21:57 | 39.22850 | -96.23509 | 32862 ft | 501 kts | 88° |
| 2026-05-08 21:57 | 39.23180 | -96.16058 | 32866 ft | 501 kts | 88° |
| 2026-05-08 21:58 | 39.23623 | -96.05566 | 32871 ft | 501 kts | 88° |
| 2026-05-08 21:58 | 39.24000 | -95.96599 | 32870 ft | 501 kts | 88° |
| 2026-05-08 21:59 | 39.24319 | -95.89116 | 32861 ft | 502 kts | 88° |
| 2026-05-08 21:59 | 39.24761 | -95.78644 | 32864 ft | 503 kts | 88° |
| 2026-05-08 22:00 | 39.25067 | -95.71087 | 32869 ft | 504 kts | 89° |
| 2026-05-08 22:00 | 39.25421 | -95.62055 | 32873 ft | 504 kts | 89° |
| 2026-05-08 22:01 | 39.25765 | -95.53017 | 32875 ft | 504 kts | 89° |
| 2026-05-08 22:01 | 39.26099 | -95.44038 | 32874 ft | 504 kts | 89° |
| 2026-05-08 22:02 | 39.26443 | -95.34990 | 32872 ft | 505 kts | 89° |
| 2026-05-08 22:02 | 39.26775 | -95.25932 | 32878 ft | 505 kts | 89° |
| 2026-05-08 22:03 | 39.27093 | -95.16870 | 32881 ft | 505 kts | 89° |
| 2026-05-08 22:03 | 39.27405 | -95.07802 | 32883 ft | 506 kts | 89° |
| 2026-05-08 22:04 | 39.27710 | -94.98731 | 32884 ft | 506 kts | 89° |
| 2026-05-08 22:04 | 39.28019 | -94.89653 | 32883 ft | 506 kts | 89° |
| 2026-05-08 22:05 | 39.28321 | -94.80548 | 32882 ft | 507 kts | 89° |
| 2026-05-08 22:05 | 39.29070 | -94.71503 | 32861 ft | 508 kts | 76° |
| 2026-05-08 22:06 | 39.31039 | -94.62793 | 32853 ft | 508 kts | 73° |
| 2026-05-08 22:06 | 39.33048 | -94.54041 | 32849 ft | 509 kts | 73° |
| 2026-05-08 22:07 | 39.35030 | -94.45267 | 32857 ft | 509 kts | 73° |
| 2026-05-08 22:07 | 39.37012 | -94.36472 | 32869 ft | 509 kts | 73° |
| 2026-05-08 22:08 | 39.38999 | -94.27682 | 32877 ft | 509 kts | 73° |
| 2026-05-08 22:08 | 39.40971 | -94.18911 | 32877 ft | 508 kts | 73° |
| 2026-05-08 22:09 | 39.42934 | -94.10125 | 32882 ft | 508 kts | 74° |
| 2026-05-08 22:09 | 39.44888 | -94.01344 | 32885 ft | 508 kts | 73° |
| 2026-05-08 22:10 | 39.46843 | -93.92553 | 32881 ft | 508 kts | 74° |
| 2026-05-08 22:10 | 39.48786 | -93.83753 | 32881 ft | 509 kts | 74° |
| 2026-05-08 22:11 | 39.50721 | -93.74935 | 32878 ft | 509 kts | 74° |
| 2026-05-08 22:11 | 39.52653 | -93.66113 | 32875 ft | 510 kts | 74° |
| 2026-05-08 22:12 | 39.54584 | -93.57277 | 32873 ft | 510 kts | 74° |
| 2026-05-08 22:12 | 39.56517 | -93.48422 | 32871 ft | 511 kts | 74° |
| 2026-05-08 22:13 | 39.58438 | -93.39554 | 32865 ft | 511 kts | 74° |
| 2026-05-08 22:13 | 39.60338 | -93.30718 | 32863 ft | 512 kts | 74° |
| 2026-05-08 22:14 | 39.62245 | -93.21820 | 32857 ft | 512 kts | 74° |
| 2026-05-08 22:14 | 39.64165 | -93.12893 | 32860 ft | 514 kts | 74° |
| 2026-05-08 22:15 | 39.66072 | -93.03942 | 32864 ft | 515 kts | 74° |
| 2026-05-08 22:15 | 39.67966 | -92.95031 | 32864 ft | 516 kts | 75° |
| 2026-05-08 22:16 | 39.69864 | -92.86045 | 32866 ft | 516 kts | 74° |
| 2026-05-08 22:16 | 39.71756 | -92.77040 | 32865 ft | 517 kts | 75° |
| 2026-05-08 22:17 | 39.73645 | -92.68004 | 32870 ft | 518 kts | 75° |
| 2026-05-08 22:17 | 39.75538 | -92.58965 | 32869 ft | 518 kts | 75° |
| 2026-05-08 22:18 | 39.77424 | -92.49915 | 32873 ft | 519 kts | 75° |
| 2026-05-08 22:18 | 39.79301 | -92.40840 | 32872 ft | 519 kts | 75° |
| 2026-05-08 22:19 | 39.81162 | -92.31758 | 32874 ft | 519 kts | 75° |
| 2026-05-08 22:19 | 39.83020 | -92.22677 | 32877 ft | 520 kts | 75° |
| 2026-05-08 22:20 | 39.84887 | -92.13575 | 32874 ft | 520 kts | 75° |
| 2026-05-08 22:20 | 39.86741 | -92.04473 | 32872 ft | 520 kts | 75° |
| 2026-05-08 22:21 | 39.88562 | -91.95415 | 32871 ft | 520 kts | 75° |
| 2026-05-08 22:21 | 39.90382 | -91.86301 | 32870 ft | 520 kts | 75° |
| 2026-05-08 22:22 | 39.92219 | -91.77179 | 32869 ft | 520 kts | 75° |
| 2026-05-08 22:22 | 39.94041 | -91.68070 | 32868 ft | 520 kts | 75° |
| 2026-05-08 22:23 | 39.95858 | -91.58921 | 32866 ft | 521 kts | 75° |
| 2026-05-08 22:23 | 39.97667 | -91.49769 | 32866 ft | 521 kts | 75° |
| 2026-05-08 22:24 | 39.99479 | -91.40611 | 32863 ft | 522 kts | 75° |
| 2026-05-08 22:24 | 40.01274 | -91.31427 | 32856 ft | 523 kts | 75° |
| 2026-05-08 22:25 | 40.03066 | -91.22254 | 32852 ft | 524 kts | 75° |
| 2026-05-08 22:25 | 40.04864 | -91.13017 | 32849 ft | 524 kts | 75° |
| 2026-05-08 22:26 | 40.06653 | -91.03769 | 32849 ft | 526 kts | 75° |
| 2026-05-08 22:26 | 40.08438 | -90.94496 | 32849 ft | 527 kts | 75° |
| 2026-05-08 22:27 | 40.10221 | -90.85199 | 32844 ft | 528 kts | 75° |
| 2026-05-08 22:27 | 40.12005 | -90.75891 | 32841 ft | 528 kts | 75° |
| 2026-05-08 22:28 | 40.13777 | -90.66565 | 32848 ft | 530 kts | 75° |
| 2026-05-08 22:28 | 40.15540 | -90.57197 | 32844 ft | 531 kts | 75° |
| 2026-05-08 22:29 | 40.17305 | -90.47813 | 32845 ft | 532 kts | 75° |
| 2026-05-08 22:29 | 40.19057 | -90.38475 | 32854 ft | 532 kts | 75° |
| 2026-05-08 22:30 | 40.20812 | -90.29053 | 32854 ft | 533 kts | 75° |
| 2026-05-08 22:30 | 40.22561 | -90.19612 | 32862 ft | 534 kts | 75° |
| 2026-05-08 22:31 | 40.24306 | -90.10158 | 32863 ft | 534 kts | 75° |
| 2026-05-08 22:31 | 40.26038 | -90.00702 | 32866 ft | 535 kts | 75° |
| 2026-05-08 22:32 | 40.27777 | -89.91214 | 32866 ft | 535 kts | 75° |
| 2026-05-08 22:32 | 40.29501 | -89.81738 | 32867 ft | 536 kts | 75° |
| 2026-05-08 22:33 | 40.31219 | -89.72227 | 32869 ft | 536 kts | 75° |
| 2026-05-08 22:33 | 40.32929 | -89.62721 | 32870 ft | 536 kts | 75° |
| 2026-05-08 22:34 | 40.34635 | -89.53211 | 32868 ft | 536 kts | 75° |
| 2026-05-08 22:34 | 40.36310 | -89.43764 | 32867 ft | 536 kts | 76° |
| 2026-05-08 22:35 | 40.37991 | -89.34239 | 32867 ft | 536 kts | 75° |
| 2026-05-08 22:35 | 40.39672 | -89.24704 | 32865 ft | 536 kts | 76° |
| 2026-05-08 22:36 | 40.41353 | -89.15170 | 32865 ft | 537 kts | 76° |
| 2026-05-08 22:36 | 40.43030 | -89.05609 | 32870 ft | 537 kts | 76° |
| 2026-05-08 22:37 | 40.44693 | -88.96041 | 32868 ft | 537 kts | 76° |
| 2026-05-08 22:37 | 40.46345 | -88.86459 | 32870 ft | 538 kts | 76° |
| 2026-05-08 22:38 | 40.47986 | -88.76860 | 32870 ft | 538 kts | 76° |
| 2026-05-08 22:38 | 40.49611 | -88.67323 | 32873 ft | 539 kts | 76° |
| 2026-05-08 22:39 | 40.51243 | -88.57709 | 32869 ft | 539 kts | 76° |
| 2026-05-08 22:39 | 40.52882 | -88.48064 | 32868 ft | 540 kts | 76° |
| 2026-05-08 22:40 | 40.54503 | -88.38433 | 32870 ft | 540 kts | 76° |
| 2026-05-08 22:40 | 40.56109 | -88.28761 | 32868 ft | 541 kts | 77° |
| 2026-05-08 22:41 | 40.57674 | -88.19086 | 32865 ft | 541 kts | 81° |
| 2026-05-08 22:41 | 40.58030 | -88.09227 | 32865 ft | 540 kts | 93° |
| 2026-05-08 22:42 | 40.57840 | -87.99418 | 32863 ft | 540 kts | 93° |
| 2026-05-08 22:42 | 40.57647 | -87.89521 | 32859 ft | 541 kts | 93° |
| 2026-05-08 22:43 | 40.57439 | -87.79633 | 32859 ft | 541 kts | 93° |
| 2026-05-08 22:43 | 40.57216 | -87.69741 | 32858 ft | 541 kts | 93° |
| 2026-05-08 22:44 | 40.56984 | -87.59860 | 32861 ft | 541 kts | 93° |
| 2026-05-08 22:44 | 40.56789 | -87.51634 | 32862 ft | 541 kts | 93° |
| 2026-05-08 22:45 | 40.56549 | -87.41747 | 32858 ft | 541 kts | 94° |
| 2026-05-08 22:45 | 40.56296 | -87.31868 | 32861 ft | 541 kts | 93° |
| 2026-05-08 22:46 | 40.56034 | -87.21971 | 32864 ft | 542 kts | 94° |
| 2026-05-08 22:46 | 40.55755 | -87.12064 | 32866 ft | 542 kts | 92° |
| 2026-05-08 22:47 | 40.56453 | -87.02214 | 32861 ft | 541 kts | 75° |
| 2026-05-08 22:47 | 40.58254 | -86.92583 | 32861 ft | 541 kts | 75° |
| 2026-05-08 22:48 | 40.59984 | -86.83013 | 32862 ft | 542 kts | 75° |
| 2026-05-08 22:48 | 40.61699 | -86.73342 | 32863 ft | 542 kts | 75° |
| 2026-05-08 22:49 | 40.63411 | -86.63671 | 32867 ft | 543 kts | 75° |
| 2026-05-08 22:49 | 40.65994 | -86.49146 | 32870 ft | 543 kts | 75° |
| 2026-05-08 22:50 | 40.67700 | -86.39438 | 32875 ft | 544 kts | 75° |
| 2026-05-08 22:50 | 40.69410 | -86.29725 | 32882 ft | 544 kts | 75° |
| 2026-05-08 22:51 | 40.71110 | -86.20003 | 32879 ft | 545 kts | 75° |
| 2026-05-08 22:51 | 40.72794 | -86.10256 | 32869 ft | 545 kts | 76° |
| 2026-05-08 22:52 | 40.74468 | -86.00501 | 32866 ft | 545 kts | 76° |
| 2026-05-08 22:52 | 40.76145 | -85.90735 | 32864 ft | 545 kts | 75° |
| 2026-05-08 22:53 | 40.77807 | -85.81035 | 32870 ft | 545 kts | 75° |
| 2026-05-08 22:53 | 40.79463 | -85.71274 | 32873 ft | 545 kts | 76° |
| 2026-05-08 22:54 | 40.81108 | -85.61504 | 32877 ft | 545 kts | 76° |
| 2026-05-08 22:54 | 40.82738 | -85.51743 | 32877 ft | 545 kts | 76° |
| 2026-05-08 22:55 | 40.84368 | -85.41982 | 32879 ft | 545 kts | 76° |
| 2026-05-08 22:55 | 40.85985 | -85.32201 | 32877 ft | 545 kts | 76° |
| 2026-05-08 22:56 | 40.87625 | -85.22426 | 32879 ft | 544 kts | 73° |
| 2026-05-08 22:56 | 40.89678 | -85.12818 | 32878 ft | 542 kts | 70° |
| 2026-05-08 22:57 | 40.91962 | -85.03362 | 32878 ft | 542 kts | 69° |
| 2026-05-08 22:57 | 40.94182 | -84.93779 | 32879 ft | 543 kts | 71° |
| 2026-05-08 22:58 | 40.96261 | -84.84173 | 32880 ft | 543 kts | 71° |
| 2026-05-08 22:58 | 40.98296 | -84.74617 | 32876 ft | 543 kts | 71° |
| 2026-05-08 22:59 | 41.00369 | -84.65000 | 32884 ft | 543 kts | 71° |
| 2026-05-08 22:59 | 41.02462 | -84.55376 | 32895 ft | 542 kts | 71° |
| 2026-05-08 23:00 | 41.04534 | -84.45763 | 32887 ft | 542 kts | 71° |
| 2026-05-08 23:00 | 41.06572 | -84.36210 | 32882 ft | 541 kts | 71° |
| 2026-05-08 23:01 | 41.08617 | -84.26609 | 32882 ft | 541 kts | 71° |
| 2026-05-08 23:01 | 41.10653 | -84.17009 | 32881 ft | 540 kts | 71° |
| 2026-05-08 23:02 | 41.12679 | -84.07415 | 32884 ft | 541 kts | 71° |
| 2026-05-08 23:02 | 41.14699 | -83.97811 | 32894 ft | 540 kts | 71° |
| 2026-05-08 23:03 | 41.16709 | -83.88180 | 32906 ft | 541 kts | 71° |
| 2026-05-08 23:03 | 41.18709 | -83.78558 | 32908 ft | 540 kts | 71° |
| 2026-05-08 23:04 | 41.20706 | -83.68943 | 32897 ft | 540 kts | 71° |
| 2026-05-08 23:04 | 41.22695 | -83.59324 | 32886 ft | 540 kts | 71° |
| 2026-05-08 23:05 | 41.24676 | -83.49694 | 32882 ft | 540 kts | 71° |
| 2026-05-08 23:05 | 41.26641 | -83.40068 | 32880 ft | 540 kts | 72° |
| 2026-05-08 23:06 | 41.28602 | -83.30411 | 32882 ft | 540 kts | 72° |
| 2026-05-08 23:06 | 41.30549 | -83.20781 | 32881 ft | 540 kts | 72° |
| 2026-05-08 23:07 | 41.32489 | -83.11208 | 32883 ft | 540 kts | 72° |
| 2026-05-08 23:07 | 41.34439 | -83.01487 | 32882 ft | 540 kts | 72° |
| 2026-05-08 23:08 | 41.36353 | -82.91891 | 32881 ft | 540 kts | 72° |
| 2026-05-08 23:08 | 41.38274 | -82.82238 | 32882 ft | 539 kts | 72° |
| 2026-05-08 23:09 | 41.40188 | -82.72582 | 32877 ft | 539 kts | 72° |
| 2026-05-08 23:09 | 41.42089 | -82.62927 | 32876 ft | 539 kts | 72° |
| 2026-05-08 23:10 | 41.43976 | -82.53270 | 32879 ft | 538 kts | 72° |
| 2026-05-08 23:10 | 41.45853 | -82.43619 | 32886 ft | 538 kts | 72° |
| 2026-05-08 23:11 | 41.47729 | -82.33945 | 32893 ft | 538 kts | 72° |
| 2026-05-08 23:11 | 41.49583 | -82.24274 | 32906 ft | 538 kts | 72° |
| 2026-05-08 23:12 | 41.51419 | -82.14613 | 32907 ft | 537 kts | 73° |
| 2026-05-08 23:12 | 41.53259 | -82.04951 | 32906 ft | 537 kts | 72° |
| 2026-05-08 23:13 | 41.55112 | -81.95311 | 32913 ft | 536 kts | 72° |
| 2026-05-08 23:13 | 41.56946 | -81.85652 | 32906 ft | 537 kts | 73° |
| 2026-05-08 23:14 | 41.58773 | -81.75990 | 32909 ft | 537 kts | 73° |
| 2026-05-08 23:14 | 41.60576 | -81.66368 | 32907 ft | 537 kts | 73° |
| 2026-05-08 23:15 | 41.62381 | -81.56679 | 32904 ft | 537 kts | 73° |
| 2026-05-08 23:15 | 41.64178 | -81.46984 | 32905 ft | 537 kts | 73° |
| 2026-05-08 23:16 | 41.65976 | -81.37287 | 32897 ft | 538 kts | 73° |
| 2026-05-08 23:16 | 41.67759 | -81.27556 | 32886 ft | 538 kts | 73° |
| 2026-05-08 23:17 | 41.69534 | -81.17813 | 32886 ft | 538 kts | 73° |
| 2026-05-08 23:17 | 41.71303 | -81.08071 | 32888 ft | 539 kts | 73° |
| 2026-05-08 23:18 | 41.73071 | -80.98308 | 32886 ft | 539 kts | 73° |
| 2026-05-08 23:18 | 41.74830 | -80.88551 | 32894 ft | 539 kts | 73° |
| 2026-05-08 23:19 | 41.76568 | -80.78796 | 32888 ft | 539 kts | 73° |
| 2026-05-08 23:19 | 41.78293 | -80.69083 | 32891 ft | 539 kts | 73° |
| 2026-05-08 23:20 | 41.80044 | -80.59318 | 32901 ft | 538 kts | 70° |
| 2026-05-08 23:20 | 41.82490 | -80.49906 | 32906 ft | 534 kts | 65° |
| 2026-05-08 23:21 | 41.85022 | -80.40546 | 32899 ft | 534 kts | 65° |
| 2026-05-08 23:21 | 41.87547 | -80.31188 | 32917 ft | 533 kts | 65° |
| 2026-05-08 23:22 | 41.90077 | -80.21838 | 32911 ft | 533 kts | 65° |
| 2026-05-08 23:22 | 41.92585 | -80.12485 | 32910 ft | 532 kts | 65° |
| 2026-05-08 23:23 | 41.95083 | -80.03129 | 32913 ft | 531 kts | 65° |
| 2026-05-08 23:23 | 41.97569 | -79.93778 | 32905 ft | 531 kts | 65° |
| 2026-05-08 23:24 | 42.00044 | -79.84426 | 32905 ft | 531 kts | 65° |
| 2026-05-08 23:24 | 42.02501 | -79.75112 | 32895 ft | 531 kts | 65° |
| 2026-05-08 23:25 | 42.04963 | -79.65743 | 32898 ft | 531 kts | 66° |
| 2026-05-08 23:25 | 42.07420 | -79.56372 | 32909 ft | 531 kts | 66° |
| 2026-05-08 23:26 | 42.09870 | -79.46994 | 32906 ft | 531 kts | 66° |
| 2026-05-08 23:26 | 42.12313 | -79.37574 | 32912 ft | 531 kts | 66° |
| 2026-05-08 23:27 | 42.14722 | -79.28242 | 32914 ft | 531 kts | 66° |
| 2026-05-08 23:27 | 42.16933 | -79.18745 | 32920 ft | 535 kts | 76° |
| 2026-05-08 23:28 | 42.17320 | -79.08725 | 32912 ft | 538 kts | 96° |
| 2026-05-08 23:28 | 42.15588 | -78.98964 | 32903 ft | 535 kts | 111° |
| 2026-05-08 23:29 | 42.13198 | -78.89441 | 32909 ft | 536 kts | 111° |
| 2026-05-08 23:29 | 42.11210 | -78.81517 | 32905 ft | 537 kts | 111° |
| 2026-05-08 23:30 | 42.08815 | -78.71997 | 32897 ft | 537 kts | 110° |
| 2026-05-08 23:30 | 42.06408 | -78.62466 | 32900 ft | 537 kts | 111° |
| 2026-05-08 23:31 | 42.03988 | -78.52952 | 32892 ft | 538 kts | 111° |
| 2026-05-08 23:31 | 42.01559 | -78.43418 | 32901 ft | 539 kts | 110° |
| 2026-05-08 23:32 | 41.99114 | -78.33875 | 32895 ft | 540 kts | 111° |
| 2026-05-08 23:32 | 41.96654 | -78.24337 | 32901 ft | 541 kts | 111° |
| 2026-05-08 23:33 | 41.94209 | -78.14839 | 32885 ft | 541 kts | 111° |
| 2026-05-08 23:33 | 41.91734 | -78.05281 | 32897 ft | 542 kts | 111° |
| 2026-05-08 23:34 | 41.89244 | -77.95706 | 32899 ft | 542 kts | 111° |
| 2026-05-08 23:34 | 41.86749 | -77.86174 | 32902 ft | 542 kts | 111° |
| 2026-05-08 23:35 | 41.84240 | -77.76640 | 32902 ft | 542 kts | 111° |
| 2026-05-08 23:35 | 41.81731 | -77.67102 | 32911 ft | 542 kts | 111° |
| 2026-05-08 23:36 | 41.79216 | -77.57565 | 32901 ft | 542 kts | 111° |
| 2026-05-08 23:36 | 41.76713 | -77.48109 | 32892 ft | 542 kts | 111° |
| 2026-05-08 23:37 | 41.74184 | -77.38604 | 32896 ft | 542 kts | 111° |
| 2026-05-08 23:37 | 41.71636 | -77.29113 | 32893 ft | 542 kts | 111° |
| 2026-05-08 23:38 | 41.69076 | -77.19618 | 32887 ft | 542 kts | 111° |
| 2026-05-08 23:38 | 41.66517 | -77.10130 | 32903 ft | 542 kts | 111° |
| 2026-05-08 23:39 | 41.63952 | -77.00654 | 32906 ft | 542 kts | 111° |
| 2026-05-08 23:39 | 41.61385 | -76.91189 | 32912 ft | 541 kts | 111° |
| 2026-05-08 23:40 | 41.58817 | -76.81740 | 32922 ft | 541 kts | 111° |
| 2026-05-08 23:40 | 41.56233 | -76.72302 | 32930 ft | 540 kts | 111° |
| 2026-05-08 23:41 | 41.53639 | -76.62894 | 32937 ft | 540 kts | 111° |
| 2026-05-08 23:41 | 41.51042 | -76.53503 | 32937 ft | 539 kts | 111° |
| 2026-05-08 23:42 | 41.48438 | -76.44130 | 32940 ft | 538 kts | 111° |
| 2026-05-08 23:42 | 41.45836 | -76.34770 | 32943 ft | 538 kts | 112° |
| 2026-05-08 23:43 | 41.44536 | -76.30103 | 32816 ft | 536 kts | 112° |
| 2026-05-08 23:43 | 41.43234 | -76.25443 | 32132 ft | 536 kts | 112° |
| 2026-05-08 23:43 | 41.41930 | -76.20789 | 31447 ft | 536 kts | 111° |
| 2026-05-08 23:43 | 41.40625 | -76.16133 | 30761 ft | 536 kts | 112° |
| 2026-05-08 23:44 | 41.39335 | -76.11541 | 30055 ft | 536 kts | 111° |
| 2026-05-08 23:44 | 41.38027 | -76.06883 | 29330 ft | 536 kts | 111° |
| 2026-05-08 23:44 | 41.36722 | -76.02238 | 28569 ft | 536 kts | 111° |
| 2026-05-08 23:44 | 41.35412 | -75.97586 | 27771 ft | 537 kts | 111° |
| 2026-05-08 23:45 | 41.34097 | -75.92931 | 26976 ft | 537 kts | 111° |
| 2026-05-08 23:45 | 41.32780 | -75.88279 | 26151 ft | 537 kts | 111° |
| 2026-05-08 23:45 | 41.31460 | -75.83626 | 25291 ft | 538 kts | 111° |
| 2026-05-08 23:45 | 41.30141 | -75.78984 | 24563 ft | 534 kts | 111° |
| 2026-05-08 23:46 | 41.28835 | -75.74393 | 23935 ft | 528 kts | 111° |
| 2026-05-08 23:46 | 41.27537 | -75.69845 | 23300 ft | 524 kts | 111° |
| 2026-05-08 23:46 | 41.26201 | -75.65358 | 23003 ft | 522 kts | 114° |
| 2026-05-08 23:46 | 41.24769 | -75.60919 | 22930 ft | 520 kts | 115° |
| 2026-05-08 23:47 | 41.23279 | -75.56540 | 22951 ft | 521 kts | 116° |
| 2026-05-08 23:47 | 41.21759 | -75.52183 | 22957 ft | 521 kts | 116° |
| 2026-05-08 23:47 | 41.20232 | -75.47816 | 22950 ft | 521 kts | 116° |
| 2026-05-08 23:47 | 41.18722 | -75.43442 | 22952 ft | 521 kts | 116° |
| 2026-05-08 23:48 | 41.17233 | -75.39055 | 22952 ft | 521 kts | 115° |
| 2026-05-08 23:48 | 41.15758 | -75.34665 | 22952 ft | 521 kts | 115° |
| 2026-05-08 23:48 | 41.14290 | -75.30269 | 22954 ft | 521 kts | 115° |
| 2026-05-08 23:48 | 41.12819 | -75.25865 | 22950 ft | 521 kts | 115° |
| 2026-05-08 23:49 | 41.11344 | -75.21469 | 22955 ft | 521 kts | 115° |
| 2026-05-08 23:49 | 41.09880 | -75.17138 | 22951 ft | 521 kts | 115° |
| 2026-05-08 23:49 | 41.08392 | -75.12755 | 22952 ft | 521 kts | 115° |
| 2026-05-08 23:49 | 41.06898 | -75.08372 | 22952 ft | 521 kts | 116° |
| 2026-05-08 23:50 | 41.05401 | -75.03998 | 22952 ft | 521 kts | 116° |
| 2026-05-08 23:50 | 41.03904 | -74.99628 | 22957 ft | 521 kts | 116° |
| 2026-05-08 23:50 | 41.02410 | -74.95259 | 22876 ft | 519 kts | 116° |
| 2026-05-08 23:50 | 41.00944 | -74.90956 | 22638 ft | 504 kts | 115° |
| 2026-05-08 23:51 | 40.99767 | -74.86665 | 22510 ft | 488 kts | 106° |
| 2026-05-08 23:51 | 40.99044 | -74.82349 | 22325 ft | 473 kts | 98° |
| 2026-05-08 23:51 | 40.98551 | -74.78074 | 21882 ft | 467 kts | 97° |
| 2026-05-08 23:51 | 40.98061 | -74.73841 | 21383 ft | 462 kts | 97° |
| 2026-05-08 23:52 | 40.97571 | -74.69653 | 20864 ft | 458 kts | 97° |
| 2026-05-08 23:52 | 40.97087 | -74.65504 | 20359 ft | 455 kts | 97° |
| 2026-05-08 23:52 | 40.96605 | -74.61392 | 19853 ft | 451 kts | 97° |
| 2026-05-08 23:52 | 40.96125 | -74.57310 | 19369 ft | 446 kts | 97° |
| 2026-05-08 23:53 | 40.95648 | -74.53271 | 19011 ft | 443 kts | 97° |
| 2026-05-08 23:53 | 40.95173 | -74.49247 | 18933 ft | 442 kts | 97° |
| 2026-05-08 23:53 | 40.94696 | -74.45227 | 18962 ft | 442 kts | 97° |
| 2026-05-08 23:53 | 40.94222 | -74.41256 | 18964 ft | 442 kts | 97° |
| 2026-05-08 23:54 | 40.93738 | -74.37239 | 18960 ft | 442 kts | 98° |
| 2026-05-08 23:54 | 40.93251 | -74.33222 | 18959 ft | 443 kts | 98° |
| 2026-05-08 23:54 | 40.92763 | -74.29205 | 18958 ft | 442 kts | 98° |
| 2026-05-08 23:55 | 40.91814 | -74.21387 | 18962 ft | 414 kts | 97° |
| 2026-05-08 23:55 | 40.91367 | -74.17698 | 18957 ft | 398 kts | 97° |
| 2026-05-08 23:55 | 40.90932 | -74.14109 | 18960 ft | 394 kts | 97° |
| 2026-05-08 23:55 | 40.90319 | -74.10594 | 18949 ft | 392 kts | 113° |
| 2026-05-08 23:56 | 40.88969 | -74.07521 | 18716 ft | 383 kts | 135° |
| 2026-05-08 23:56 | 40.86987 | -74.05287 | 18308 ft | 367 kts | 158° |
| 2026-05-08 23:56 | 40.84697 | -74.03914 | 17881 ft | 358 kts | 167° |
| 2026-05-08 23:56 | 40.82381 | -74.02725 | 17474 ft | 356 kts | 168° |
| 2026-05-08 23:57 | 40.80043 | -74.01864 | 17102 ft | 346 kts | 176° |
| 2026-05-08 23:57 | 40.77700 | -74.01205 | 16741 ft | 342 kts | 177° |
| 2026-05-08 23:57 | 40.75379 | -74.00573 | 16375 ft | 340 kts | 177° |
| 2026-05-08 23:57 | 40.73067 | -73.99954 | 16000 ft | 338 kts | 177° |
| 2026-05-08 23:58 | 40.70766 | -73.99341 | 15643 ft | 336 kts | 177° |
| 2026-05-08 23:58 | 40.68487 | -73.98742 | 15307 ft | 333 kts | 177° |
| 2026-05-08 23:58 | 40.66224 | -73.98151 | 14948 ft | 331 kts | 177° |
| 2026-05-08 23:58 | 40.63999 | -73.97575 | 14594 ft | 329 kts | 178° |
| 2026-05-08 23:59 | 40.61760 | -73.97002 | 14238 ft | 327 kts | 177° |
| 2026-05-08 23:59 | 40.59534 | -73.96441 | 13884 ft | 325 kts | 177° |
| 2026-05-08 23:59 | 40.57313 | -73.95886 | 13526 ft | 323 kts | 177° |
| 2026-05-08 23:59 | 40.55115 | -73.95338 | 13166 ft | 321 kts | 177° |
| 2026-05-09 00:00 | 40.52927 | -73.94803 | 12803 ft | 318 kts | 177° |
| 2026-05-09 00:00 | 40.50753 | -73.94280 | 12430 ft | 317 kts | 177° |
| 2026-05-09 00:00 | 40.48590 | -73.93770 | 12068 ft | 315 kts | 177° |
| 2026-05-09 00:00 | 40.46431 | -73.93267 | 11697 ft | 313 kts | 177° |
| 2026-05-09 00:01 | 40.44291 | -73.92772 | 11347 ft | 311 kts | 177° |
| 2026-05-09 00:01 | 40.42190 | -73.92083 | 11005 ft | 317 kts | 161° |
| 2026-05-09 00:01 | 40.40381 | -73.90400 | 10670 ft | 324 kts | 135° |
| 2026-05-09 00:01 | 40.39136 | -73.87920 | 10304 ft | 326 kts | 119° |
| 2026-05-09 00:02 | 40.38113 | -73.85275 | 9952 ft | 324 kts | 118° |
| 2026-05-09 00:02 | 40.37127 | -73.82635 | 9595 ft | 321 kts | 117° |
| 2026-05-09 00:02 | 40.36163 | -73.80034 | 9146 ft | 322 kts | 117° |
| 2026-05-09 00:02 | 40.35193 | -73.77408 | 8694 ft | 317 kts | 117° |
| 2026-05-09 00:03 | 40.34246 | -73.74837 | 8237 ft | 310 kts | 117° |
| 2026-05-09 00:03 | 40.33319 | -73.72318 | 7780 ft | 303 kts | 117° |
| 2026-05-09 00:03 | 40.32413 | -73.69848 | 7334 ft | 299 kts | 117° |
| 2026-05-09 00:03 | 40.31517 | -73.67409 | 6794 ft | 295 kts | 117° |
| 2026-05-09 00:04 | 40.30638 | -73.65008 | 6213 ft | 289 kts | 117° |
| 2026-05-09 00:04 | 40.30027 | -73.62544 | 5637 ft | 283 kts | 94° |
| 2026-05-09 00:04 | 40.30283 | -73.60053 | 5059 ft | 274 kts | 64° |
| 2026-05-09 00:04 | 40.31352 | -73.58083 | 4495 ft | 262 kts | 36° |
| 2026-05-09 00:05 | 40.32817 | -73.56719 | 4079 ft | 256 kts | 28° |
| 2026-05-09 00:05 | 40.34321 | -73.55500 | 3993 ft | 249 kts | 27° |
| 2026-05-09 00:05 | 40.35758 | -73.54349 | 3997 ft | 237 kts | 27° |
| 2026-05-09 00:05 | 40.37160 | -73.53225 | 4022 ft | 236 kts | 27° |
| 2026-05-09 00:06 | 40.38560 | -73.52103 | 4004 ft | 235 kts | 27° |
| 2026-05-09 00:06 | 40.39953 | -73.50998 | 4004 ft | 233 kts | 27° |
| 2026-05-09 00:06 | 40.41333 | -73.49913 | 3922 ft | 230 kts | 27° |
| 2026-05-09 00:06 | 40.42707 | -73.48834 | 3541 ft | 230 kts | 27° |
| 2026-05-09 00:07 | 40.44079 | -73.47759 | 3183 ft | 230 kts | 27° |
| 2026-05-09 00:07 | 40.45462 | -73.46719 | 3020 ft | 228 kts | 20° |
| 2026-05-09 00:07 | 40.46984 | -73.46439 | 3022 ft | 220 kts | 345° |
| 2026-05-09 00:07 | 40.48398 | -73.47112 | 3028 ft | 216 kts | 330° |
| 2026-05-09 00:08 | 40.49744 | -73.47988 | 3025 ft | 216 kts | 328° |
| 2026-05-09 00:08 | 40.51078 | -73.48884 | 3025 ft | 215 kts | 328° |
| 2026-05-09 00:08 | 40.52339 | -73.49893 | 3016 ft | 206 kts | 313° |
| 2026-05-09 00:08 | 40.53166 | -73.51332 | 3022 ft | 193 kts | 297° |
| 2026-05-09 00:09 | 40.53847 | -73.52826 | 3024 ft | 189 kts | 297° |
| 2026-05-09 00:09 | 40.54523 | -73.54306 | 3025 ft | 188 kts | 297° |
| 2026-05-09 00:09 | 40.55176 | -73.55733 | 3016 ft | 176 kts | 297° |
| 2026-05-09 00:09 | 40.55793 | -73.57083 | 3026 ft | 170 kts | 297° |
| 2026-05-09 00:10 | 40.56396 | -73.58404 | 3008 ft | 168 kts | 297° |
| 2026-05-09 00:10 | 40.56996 | -73.59721 | 2836 ft | 168 kts | 297° |
| 2026-05-09 00:10 | 40.57592 | -73.61027 | 2635 ft | 169 kts | 297° |
| 2026-05-09 00:10 | 40.58193 | -73.62341 | 2414 ft | 165 kts | 297° |
| 2026-05-09 00:11 | 40.58782 | -73.63635 | 2200 ft | 165 kts | 297° |
| 2026-05-09 00:11 | 40.59374 | -73.64935 | 1983 ft | 166 kts | 298° |
| 2026-05-09 00:11 | 40.59968 | -73.66238 | 1763 ft | 166 kts | 298° |
| 2026-05-09 00:11 | 40.60563 | -73.67546 | 1539 ft | 167 kts | 298° |
| 2026-05-09 00:12 | 40.61153 | -73.68841 | 1343 ft | 160 kts | 299° |
| 2026-05-09 00:12 | 40.61720 | -73.70089 | 1112 ft | 157 kts | 299° |
| 2026-05-09 00:12 | 40.62273 | -73.71302 | 890 ft | 153 kts | 301° |
| 2026-05-09 00:12 | 40.62818 | -73.72489 | 694 ft | 149 kts | 300° |
| 2026-05-09 00:13 | 40.63333 | -73.73645 | 515 ft | 147 kts | 300° |
| 2026-05-09 00:13 | 40.63867 | -73.74809 | 329 ft | 147 kts | 300° |
| 2026-05-09 00:13 | 40.64393 | -73.75977 | 124 ft | 148 kts | 301° |
| 2026-05-09 00:13 | 40.64914 | -73.77117 | 30 ft | 139 kts | 300° |
| 2026-05-09 00:14 | 40.65319 | -73.78033 | 21 ft | 66 kts | 300° |
| 2026-05-09 00:14 | 40.65421 | -73.78284 | 22 ft | 19 kts | 273° |
| 2026-05-09 00:14 | 40.65409 | -73.78342 | 24 ft | 0 kts | 243° |
| 2026-05-09 00:15 | 40.65401 | -73.78363 | 24 ft | 8 kts | 242° |
| 2026-05-09 00:15 | 40.65363 | -73.78443 | 26 ft | 11 kts | 237° |
| 2026-05-09 00:15 | 40.65293 | -73.78470 | 26 ft | 12 kts | 184° |
| 2026-05-09 00:16 | 40.65233 | -73.78549 | 25 ft | 14 kts | 238° |
| 2026-05-09 00:16 | 40.65192 | -73.78641 | 27 ft | 12 kts | 240° |
| 2026-05-09 00:16 | 40.65139 | -73.78766 | 24 ft | 17 kts | 240° |
| 2026-05-09 00:16 | 40.65139 | -73.78921 | 24 ft | 16 kts | 279° |
| 2026-05-09 00:17 | 40.65173 | -73.79070 | 25 ft | 18 kts | 288° |
| 2026-05-09 00:17 | 40.65206 | -73.79210 | 24 ft | 12 kts | 286° |
| 2026-05-09 00:17 | 40.65196 | -73.79307 | 24 ft | 9 kts | 218° |
| 2026-05-09 00:17 | 40.65149 | -73.79305 | 24 ft | 7 kts | 172° |
| 2026-05-09 00:18 | 40.65105 | -73.79333 | 24 ft | 8 kts | 237° |
| 2026-05-09 00:18 | 40.65091 | -73.79371 | 24 ft | 1 kts | 246° |
| 2026-05-09 00:18 | 40.65076 | -73.79410 | 26 ft | 16 kts | 240° |
| 2026-05-09 00:18 | 40.65018 | -73.79554 | 26 ft | 13 kts | 246° |
| 2026-05-09 00:19 | 40.64951 | -73.79611 | 24 ft | 11 kts | 172° |
| 2026-05-09 00:19 | 40.64938 | -73.79597 | 24 ft | 0 kts | 121° |